sensor_id;sensor_type;location;lat;lon;timestamp;P1;durP1;ratioP1;P2;durP2;ratioP2
41556;SDS011;27720;51.992;5.890;2022-11-04T00:01:51;7.25;;;2.47;;
41556;SDS011;27720;51.992;5.890;2022-11-04T00:04:18;5.70;;;3.08;;
41556;SDS011;27720;51.992;5.890;2022-11-04T00:06:45;4.63;;;2.90;;
41556;SDS011;27720;51.992;5.890;2022-11-04T00:09:14;6.70;;;3.05;;
41556;SDS011;27720;51.992;5.890;2022-11-04T00:11:43;7.18;;;3.55;;
41556;SDS011;27720;51.992;5.890;2022-11-04T00:14:28;4.38;;;2.65;;
41556;SDS011;27720;51.992;5.890;2022-11-04T00:16:54;8.52;;;3.15;;
41556;SDS011;27720;51.992;5.890;2022-11-04T00:19:39;7.65;;;4.03;;
41556;SDS011;27720;51.992;5.890;2022-11-04T00:22:23;6.57;;;4.15;;
41556;SDS011;27720;51.992;5.890;2022-11-04T00:25:08;7.47;;;3.75;;
41556;SDS011;27720;51.992;5.890;2022-11-04T00:28:00;6.93;;;3.53;;
41556;SDS011;27720;51.992;5.890;2022-11-04T00:30:47;8.75;;;5.13;;
41556;SDS011;27720;51.992;5.890;2022-11-04T00:33:13;10.27;;;5.78;;
41556;SDS011;27720;51.992;5.890;2022-11-04T00:35:51;12.15;;;5.63;;
41556;SDS011;27720;51.992;5.890;2022-11-04T00:38:19;14.05;;;6.03;;
41556;SDS011;27720;51.992;5.890;2022-11-04T00:40:44;14.32;;;6.75;;
41556;SDS011;27720;51.992;5.890;2022-11-04T00:43:10;14.70;;;7.57;;
41556;SDS011;27720;51.992;5.890;2022-11-04T00:45:36;12.32;;;7.30;;
41556;SDS011;27720;51.992;5.890;2022-11-04T00:48:04;16.33;;;8.30;;
41556;SDS011;27720;51.992;5.890;2022-11-04T00:50:30;15.75;;;8.70;;
41556;SDS011;27720;51.992;5.890;2022-11-04T00:52:59;15.18;;;9.50;;
41556;SDS011;27720;51.992;5.890;2022-11-04T00:55:25;17.00;;;9.63;;
41556;SDS011;27720;51.992;5.890;2022-11-04T00:57:51;12.90;;;7.75;;
41556;SDS011;27720;51.992;5.890;2022-11-04T01:00:16;10.95;;;6.60;;
41556;SDS011;27720;51.992;5.890;2022-11-04T01:02:44;8.93;;;6.05;;
41556;SDS011;27720;51.992;5.890;2022-11-04T01:05:10;10.25;;;5.45;;
41556;SDS011;27720;51.992;5.890;2022-11-04T01:07:36;8.98;;;4.78;;
41556;SDS011;27720;51.992;5.890;2022-11-04T01:10:02;8.93;;;3.83;;
41556;SDS011;27720;51.992;5.890;2022-11-04T01:12:29;4.88;;;3.40;;
41556;SDS011;27720;51.992;5.890;2022-11-04T01:14:55;5.15;;;2.80;;
41556;SDS011;27720;51.992;5.890;2022-11-04T01:17:20;5.72;;;2.72;;
41556;SDS011;27720;51.992;5.890;2022-11-04T01:19:46;4.57;;;2.28;;
41556;SDS011;27720;51.992;5.890;2022-11-04T01:22:12;3.05;;;1.80;;
41556;SDS011;27720;51.992;5.890;2022-11-04T01:24:37;3.63;;;2.03;;
41556;SDS011;27720;51.992;5.890;2022-11-04T01:27:03;3.90;;;1.83;;
41556;SDS011;27720;51.992;5.890;2022-11-04T01:29:29;2.53;;;1.30;;
41556;SDS011;27720;51.992;5.890;2022-11-04T01:31:54;2.75;;;1.35;;
41556;SDS011;27720;51.992;5.890;2022-11-04T01:34:20;2.88;;;1.10;;
41556;SDS011;27720;51.992;5.890;2022-11-04T01:36:46;2.38;;;1.23;;
41556;SDS011;27720;51.992;5.890;2022-11-04T01:39:12;1.88;;;0.88;;
41556;SDS011;27720;51.992;5.890;2022-11-04T01:41:38;2.25;;;0.95;;
41556;SDS011;27720;51.992;5.890;2022-11-04T01:47:12;2.65;;;0.73;;
41556;SDS011;27720;51.992;5.890;2022-11-04T01:49:46;2.60;;;0.93;;
41556;SDS011;27720;51.992;5.890;2022-11-04T01:52:19;2.17;;;1.33;;
41556;SDS011;27720;51.992;5.890;2022-11-04T01:54:50;2.90;;;1.58;;
41556;SDS011;27720;51.992;5.890;2022-11-04T01:57:22;3.83;;;1.85;;
41556;SDS011;27720;51.992;5.890;2022-11-04T01:59:53;4.32;;;2.25;;
41556;SDS011;27720;51.992;5.890;2022-11-04T02:02:22;3.22;;;1.70;;
41556;SDS011;27720;51.992;5.890;2022-11-04T02:04:47;2.75;;;1.73;;
41556;SDS011;27720;51.992;5.890;2022-11-04T02:07:13;5.70;;;2.53;;
41556;SDS011;27720;51.992;5.890;2022-11-04T02:09:39;4.15;;;2.45;;
41556;SDS011;27720;51.992;5.890;2022-11-04T02:12:06;5.00;;;2.83;;
41556;SDS011;27720;51.992;5.890;2022-11-04T02:14:51;7.75;;;3.53;;
41556;SDS011;27720;51.992;5.890;2022-11-04T02:28:26;10.13;;;6.45;;
41556;SDS011;27720;51.992;5.890;2022-11-04T02:31:28;12.95;;;6.88;;
41556;SDS011;27720;51.992;5.890;2022-11-04T02:34:09;14.23;;;7.22;;
41556;SDS011;27720;51.992;5.890;2022-11-04T02:47:49;18.92;;;10.48;;
41556;SDS011;27720;51.992;5.890;2022-11-04T02:50:26;19.30;;;10.73;;
41556;SDS011;27720;51.992;5.890;2022-11-04T02:53:16;15.95;;;9.52;;
41556;SDS011;27720;51.992;5.890;2022-11-04T02:55:53;22.08;;;12.85;;
41556;SDS011;27720;51.992;5.890;2022-11-04T02:58:22;18.67;;;10.88;;
41556;SDS011;27720;51.992;5.890;2022-11-04T03:00:53;19.55;;;10.93;;
41556;SDS011;27720;51.992;5.890;2022-11-04T03:03:21;25.08;;;13.32;;
41556;SDS011;27720;51.992;5.890;2022-11-04T03:05:52;24.27;;;12.48;;
41556;SDS011;27720;51.992;5.890;2022-11-04T03:08:23;26.42;;;14.25;;
41556;SDS011;27720;51.992;5.890;2022-11-04T03:10:55;20.17;;;11.30;;
41556;SDS011;27720;51.992;5.890;2022-11-04T03:15:57;23.40;;;11.52;;
41556;SDS011;27720;51.992;5.890;2022-11-04T03:21:20;23.23;;;12.68;;
41556;SDS011;27720;51.992;5.890;2022-11-04T03:23:49;21.52;;;12.45;;
41556;SDS011;27720;51.992;5.890;2022-11-04T03:27:01;23.85;;;12.20;;
41556;SDS011;27720;51.992;5.890;2022-11-04T03:34:16;19.50;;;10.40;;
41556;SDS011;27720;51.992;5.890;2022-11-04T03:36:42;21.52;;;10.90;;
41556;SDS011;27720;51.992;5.890;2022-11-04T03:39:08;18.52;;;10.43;;
41556;SDS011;27720;51.992;5.890;2022-11-04T03:41:38;15.77;;;10.00;;
41556;SDS011;27720;51.992;5.890;2022-11-04T03:44:14;15.45;;;9.07;;
41556;SDS011;27720;51.992;5.890;2022-11-04T03:46:40;15.85;;;9.32;;
41556;SDS011;27720;51.992;5.890;2022-11-04T03:49:08;21.30;;;11.38;;
41556;SDS011;27720;51.992;5.890;2022-11-04T03:51:35;17.55;;;9.95;;
41556;SDS011;27720;51.992;5.890;2022-11-04T03:54:01;24.20;;;11.90;;
41556;SDS011;27720;51.992;5.890;2022-11-04T04:02:09;20.42;;;10.15;;
41556;SDS011;27720;51.992;5.890;2022-11-04T04:04:55;17.17;;;10.05;;
41556;SDS011;27720;51.992;5.890;2022-11-04T04:07:43;17.77;;;9.40;;
41556;SDS011;27720;51.992;5.890;2022-11-04T04:10:38;19.88;;;9.98;;
41556;SDS011;27720;51.992;5.890;2022-11-04T04:13:22;17.38;;;9.38;;
41556;SDS011;27720;51.992;5.890;2022-11-04T04:16:02;17.48;;;8.32;;
41556;SDS011;27720;51.992;5.890;2022-11-04T04:18:39;15.77;;;8.63;;
41556;SDS011;27720;51.992;5.890;2022-11-04T04:21:13;15.95;;;8.93;;
41556;SDS011;27720;51.992;5.890;2022-11-04T04:23:41;13.13;;;8.25;;
41556;SDS011;27720;51.992;5.890;2022-11-04T04:26:26;15.25;;;7.95;;
41556;SDS011;27720;51.992;5.890;2022-11-04T04:29:13;14.63;;;7.53;;
41556;SDS011;27720;51.992;5.890;2022-11-04T04:31:44;12.90;;;7.60;;
41556;SDS011;27720;51.992;5.890;2022-11-04T04:34:19;13.98;;;6.57;;
41556;SDS011;27720;51.992;5.890;2022-11-04T04:36:49;13.40;;;7.18;;
41556;SDS011;27720;51.992;5.890;2022-11-04T04:39:17;16.30;;;8.30;;
41556;SDS011;27720;51.992;5.890;2022-11-04T04:42:05;10.13;;;6.10;;
41556;SDS011;27720;51.992;5.890;2022-11-04T04:44:50;13.27;;;7.07;;
41556;SDS011;27720;51.992;5.890;2022-11-04T04:47:49;11.50;;;6.45;;
41556;SDS011;27720;51.992;5.890;2022-11-04T04:50:16;12.93;;;5.53;;
41556;SDS011;27720;51.992;5.890;2022-11-04T04:52:44;8.45;;;4.80;;
41556;SDS011;27720;51.992;5.890;2022-11-04T04:55:12;10.00;;;5.57;;
41556;SDS011;27720;51.992;5.890;2022-11-04T04:57:38;11.13;;;4.78;;
41556;SDS011;27720;51.992;5.890;2022-11-04T05:00:05;6.43;;;3.85;;
41556;SDS011;27720;51.992;5.890;2022-11-04T05:02:37;7.68;;;4.30;;
41556;SDS011;27720;51.992;5.890;2022-11-04T05:05:03;6.93;;;3.65;;
41556;SDS011;27720;51.992;5.890;2022-11-04T05:07:29;7.47;;;4.47;;
41556;SDS011;27720;51.992;5.890;2022-11-04T05:09:54;9.52;;;4.30;;
41556;SDS011;27720;51.992;5.890;2022-11-04T05:12:20;7.80;;;4.15;;
41556;SDS011;27720;51.992;5.890;2022-11-04T05:14:46;7.45;;;3.90;;
41556;SDS011;27720;51.992;5.890;2022-11-04T05:17:12;6.25;;;3.30;;
41556;SDS011;27720;51.992;5.890;2022-11-04T05:19:38;9.10;;;4.35;;
41556;SDS011;27720;51.992;5.890;2022-11-04T05:22:04;9.48;;;4.30;;
41556;SDS011;27720;51.992;5.890;2022-11-04T05:24:30;8.65;;;4.53;;
41556;SDS011;27720;51.992;5.890;2022-11-04T05:26:56;9.63;;;4.63;;
41556;SDS011;27720;51.992;5.890;2022-11-04T05:29:21;9.20;;;4.72;;
41556;SDS011;27720;51.992;5.890;2022-11-04T05:31:47;6.80;;;4.10;;
41556;SDS011;27720;51.992;5.890;2022-11-04T05:34:13;8.45;;;4.53;;
41556;SDS011;27720;51.992;5.890;2022-11-04T05:36:39;10.50;;;4.28;;
41556;SDS011;27720;51.992;5.890;2022-11-04T05:39:05;9.20;;;4.35;;
41556;SDS011;27720;51.992;5.890;2022-11-04T05:41:31;8.90;;;4.55;;
41556;SDS011;27720;51.992;5.890;2022-11-04T05:44:02;7.60;;;3.95;;
41556;SDS011;27720;51.992;5.890;2022-11-04T05:46:28;8.88;;;3.85;;
41556;SDS011;27720;51.992;5.890;2022-11-04T05:48:55;7.80;;;3.70;;
41556;SDS011;27720;51.992;5.890;2022-11-04T05:51:22;8.75;;;3.78;;
41556;SDS011;27720;51.992;5.890;2022-11-04T05:53:51;6.55;;;3.22;;
41556;SDS011;27720;51.992;5.890;2022-11-04T05:56:17;13.15;;;3.83;;
41556;SDS011;27720;51.992;5.890;2022-11-04T05:58:46;10.88;;;3.83;;
41556;SDS011;27720;51.992;5.890;2022-11-04T06:01:12;6.35;;;3.22;;
41556;SDS011;27720;51.992;5.890;2022-11-04T06:03:38;8.80;;;3.35;;
41556;SDS011;27720;51.992;5.890;2022-11-04T06:06:04;7.85;;;3.58;;
41556;SDS011;27720;51.992;5.890;2022-11-04T06:08:30;6.22;;;2.97;;
41556;SDS011;27720;51.992;5.890;2022-11-04T06:10:56;5.53;;;2.90;;
41556;SDS011;27720;51.992;5.890;2022-11-04T06:13:21;6.15;;;2.95;;
41556;SDS011;27720;51.992;5.890;2022-11-04T06:15:47;4.75;;;2.67;;
41556;SDS011;27720;51.992;5.890;2022-11-04T06:18:13;5.80;;;2.65;;
41556;SDS011;27720;51.992;5.890;2022-11-04T06:20:38;5.18;;;2.90;;
41556;SDS011;27720;51.992;5.890;2022-11-04T06:23:04;5.03;;;2.90;;
41556;SDS011;27720;51.992;5.890;2022-11-04T06:25:30;5.90;;;2.58;;
41556;SDS011;27720;51.992;5.890;2022-11-04T06:27:56;5.50;;;2.45;;
41556;SDS011;27720;51.992;5.890;2022-11-04T06:30:21;4.45;;;2.25;;
41556;SDS011;27720;51.992;5.890;2022-11-04T06:32:47;4.88;;;2.33;;
41556;SDS011;27720;51.992;5.890;2022-11-04T06:35:14;4.45;;;2.45;;
41556;SDS011;27720;51.992;5.890;2022-11-04T06:37:39;7.63;;;2.22;;
41556;SDS011;27720;51.992;5.890;2022-11-04T06:40:05;4.97;;;2.28;;
41556;SDS011;27720;51.992;5.890;2022-11-04T06:42:32;5.50;;;3.00;;
41556;SDS011;27720;51.992;5.890;2022-11-04T06:44:57;5.35;;;2.03;;
41556;SDS011;27720;51.992;5.890;2022-11-04T06:47:23;6.60;;;2.53;;
41556;SDS011;27720;51.992;5.890;2022-11-04T06:49:49;7.10;;;2.15;;
41556;SDS011;27720;51.992;5.890;2022-11-04T06:52:14;5.63;;;2.47;;
41556;SDS011;27720;51.992;5.890;2022-11-04T06:54:40;6.28;;;2.53;;
41556;SDS011;27720;51.992;5.890;2022-11-04T06:57:07;5.53;;;2.42;;
41556;SDS011;27720;51.992;5.890;2022-11-04T06:59:34;6.22;;;2.20;;
41556;SDS011;27720;51.992;5.890;2022-11-04T07:02:00;3.80;;;2.15;;
41556;SDS011;27720;51.992;5.890;2022-11-04T07:04:26;5.00;;;2.25;;
41556;SDS011;27720;51.992;5.890;2022-11-04T07:06:52;6.00;;;2.45;;
41556;SDS011;27720;51.992;5.890;2022-11-04T07:09:17;4.05;;;2.05;;
41556;SDS011;27720;51.992;5.890;2022-11-04T07:11:45;4.38;;;2.20;;
41556;SDS011;27720;51.992;5.890;2022-11-04T07:14:11;6.00;;;2.25;;
41556;SDS011;27720;51.992;5.890;2022-11-04T07:16:37;4.05;;;2.20;;
41556;SDS011;27720;51.992;5.890;2022-11-04T07:19:03;3.75;;;2.20;;
41556;SDS011;27720;51.992;5.890;2022-11-04T07:21:29;4.88;;;2.08;;
41556;SDS011;27720;51.992;5.890;2022-11-04T07:23:55;5.55;;;2.47;;
41556;SDS011;27720;51.992;5.890;2022-11-04T07:26:20;4.28;;;2.75;;
41556;SDS011;27720;51.992;5.890;2022-11-04T07:28:50;5.00;;;2.27;;
41556;SDS011;27720;51.992;5.890;2022-11-04T07:31:16;4.45;;;2.22;;
41556;SDS011;27720;51.992;5.890;2022-11-04T07:33:43;7.03;;;2.60;;
41556;SDS011;27720;51.992;5.890;2022-11-04T07:36:18;3.70;;;1.98;;
41556;SDS011;27720;51.992;5.890;2022-11-04T07:38:45;7.18;;;2.72;;
41556;SDS011;27720;51.992;5.890;2022-11-04T07:41:12;4.18;;;2.40;;
41556;SDS011;27720;51.992;5.890;2022-11-04T07:43:41;4.80;;;1.98;;
41556;SDS011;27720;51.992;5.890;2022-11-04T07:46:09;5.07;;;2.22;;
41556;SDS011;27720;51.992;5.890;2022-11-04T07:48:36;6.70;;;2.47;;
41556;SDS011;27720;51.992;5.890;2022-11-04T07:51:02;3.38;;;1.98;;
41556;SDS011;27720;51.992;5.890;2022-11-04T07:53:30;7.25;;;2.03;;
41556;SDS011;27720;51.992;5.890;2022-11-04T07:55:56;4.80;;;2.30;;
41556;SDS011;27720;51.992;5.890;2022-11-04T07:58:25;5.85;;;1.85;;
41556;SDS011;27720;51.992;5.890;2022-11-04T08:01:17;5.03;;;2.28;;
41556;SDS011;27720;51.992;5.890;2022-11-04T08:03:49;3.78;;;1.90;;
41556;SDS011;27720;51.992;5.890;2022-11-04T08:06:51;4.22;;;2.22;;
41556;SDS011;27720;51.992;5.890;2022-11-04T08:09:17;8.80;;;2.20;;
41556;SDS011;27720;51.992;5.890;2022-11-04T08:11:43;6.25;;;2.83;;
41556;SDS011;27720;51.992;5.890;2022-11-04T08:14:09;3.40;;;1.60;;
41556;SDS011;27720;51.992;5.890;2022-11-04T08:16:34;4.15;;;1.88;;
41556;SDS011;27720;51.992;5.890;2022-11-04T08:19:00;6.68;;;2.70;;
41556;SDS011;27720;51.992;5.890;2022-11-04T08:21:27;6.75;;;2.60;;
41556;SDS011;27720;51.992;5.890;2022-11-04T08:23:54;6.07;;;2.05;;
41556;SDS011;27720;51.992;5.890;2022-11-04T08:26:20;4.68;;;2.22;;
41556;SDS011;27720;51.992;5.890;2022-11-04T08:28:48;6.47;;;2.83;;
41556;SDS011;27720;51.992;5.890;2022-11-04T08:31:16;9.98;;;3.20;;
41556;SDS011;27720;51.992;5.890;2022-11-04T08:33:49;9.13;;;2.72;;
41556;SDS011;27720;51.992;5.890;2022-11-04T08:36:16;9.30;;;3.47;;
41556;SDS011;27720;51.992;5.890;2022-11-04T08:38:54;4.65;;;2.78;;
41556;SDS011;27720;51.992;5.890;2022-11-04T08:41:21;3.45;;;1.90;;
41556;SDS011;27720;51.992;5.890;2022-11-04T08:43:49;4.20;;;2.45;;
41556;SDS011;27720;51.992;5.890;2022-11-04T08:46:15;6.05;;;2.65;;
41556;SDS011;27720;51.992;5.890;2022-11-04T08:48:45;4.80;;;2.30;;
41556;SDS011;27720;51.992;5.890;2022-11-04T08:51:15;5.68;;;2.35;;
41556;SDS011;27720;51.992;5.890;2022-11-04T08:53:47;6.47;;;2.80;;
41556;SDS011;27720;51.992;5.890;2022-11-04T08:56:33;8.65;;;2.90;;
41556;SDS011;27720;51.992;5.890;2022-11-04T08:59:00;5.97;;;2.70;;
41556;SDS011;27720;51.992;5.890;2022-11-04T09:01:30;5.93;;;2.22;;
41556;SDS011;27720;51.992;5.890;2022-11-04T09:03:57;5.75;;;3.30;;
41556;SDS011;27720;51.992;5.890;2022-11-04T09:06:25;6.55;;;2.58;;
41556;SDS011;27720;51.992;5.890;2022-11-04T09:08:54;4.72;;;2.42;;
41556;SDS011;27720;51.992;5.890;2022-11-04T09:11:25;5.82;;;2.50;;
41556;SDS011;27720;51.992;5.890;2022-11-04T09:13:57;4.38;;;2.42;;
41556;SDS011;27720;51.992;5.890;2022-11-04T09:16:23;5.82;;;2.90;;
41556;SDS011;27720;51.992;5.890;2022-11-04T09:18:49;6.07;;;2.65;;
41556;SDS011;27720;51.992;5.890;2022-11-04T09:21:15;5.15;;;2.72;;
41556;SDS011;27720;51.992;5.890;2022-11-04T09:23:41;5.88;;;2.80;;
41556;SDS011;27720;51.992;5.890;2022-11-04T09:26:11;9.10;;;2.25;;
41556;SDS011;27720;51.992;5.890;2022-11-04T09:28:38;4.32;;;1.98;;
41556;SDS011;27720;51.992;5.890;2022-11-04T09:31:09;3.72;;;2.08;;
41556;SDS011;27720;51.992;5.890;2022-11-04T09:33:36;5.43;;;2.10;;
41556;SDS011;27720;51.992;5.890;2022-11-04T09:36:02;3.65;;;2.08;;
41556;SDS011;27720;51.992;5.890;2022-11-04T09:38:28;4.68;;;2.35;;
41556;SDS011;27720;51.992;5.890;2022-11-04T09:40:54;4.28;;;2.13;;
41556;SDS011;27720;51.992;5.890;2022-11-04T09:45:52;6.10;;;3.28;;
41556;SDS011;27720;51.992;5.890;2022-11-04T09:48:31;7.63;;;3.47;;
41556;SDS011;27720;51.992;5.890;2022-11-04T09:51:09;6.70;;;3.60;;
41556;SDS011;27720;51.992;5.890;2022-11-04T09:53:51;9.57;;;4.65;;
41556;SDS011;27720;51.992;5.890;2022-11-04T09:56:41;6.25;;;4.05;;
41556;SDS011;27720;51.992;5.890;2022-11-04T09:59:10;11.73;;;4.53;;
41556;SDS011;27720;51.992;5.890;2022-11-04T10:04:37;7.60;;;3.78;;
41556;SDS011;27720;51.992;5.890;2022-11-04T10:07:11;9.50;;;4.47;;
41556;SDS011;27720;51.992;5.890;2022-11-04T10:12:30;7.80;;;3.65;;
41556;SDS011;27720;51.992;5.890;2022-11-04T10:15:10;11.85;;;4.28;;
41556;SDS011;27720;51.992;5.890;2022-11-04T10:20:41;7.18;;;4.93;;
41556;SDS011;27720;51.992;5.890;2022-11-04T10:25:51;9.95;;;5.35;;
41556;SDS011;27720;51.992;5.890;2022-11-04T10:28:19;11.73;;;5.70;;
41556;SDS011;27720;51.992;5.890;2022-11-04T10:30:49;10.73;;;5.07;;
41556;SDS011;27720;51.992;5.890;2022-11-04T10:33:29;9.35;;;4.32;;
41556;SDS011;27720;51.992;5.890;2022-11-04T10:35:59;12.95;;;6.40;;
41556;SDS011;27720;51.992;5.890;2022-11-04T10:38:41;10.98;;;6.43;;
41556;SDS011;27720;51.992;5.890;2022-11-04T10:41:16;10.50;;;6.03;;
41556;SDS011;27720;51.992;5.890;2022-11-04T10:43:56;10.38;;;5.22;;
41556;SDS011;27720;51.992;5.890;2022-11-04T10:49:23;9.77;;;5.32;;
41556;SDS011;27720;51.992;5.890;2022-11-04T10:52:05;6.70;;;4.53;;
41556;SDS011;27720;51.992;5.890;2022-11-04T10:54:38;9.07;;;5.45;;
41556;SDS011;27720;51.992;5.890;2022-11-04T10:57:06;12.10;;;5.18;;
41556;SDS011;27720;51.992;5.890;2022-11-04T10:59:41;9.57;;;5.75;;
41556;SDS011;27720;51.992;5.890;2022-11-04T11:02:13;15.95;;;6.38;;
41556;SDS011;27720;51.992;5.890;2022-11-04T11:04:39;10.65;;;5.82;;
41556;SDS011;27720;51.992;5.890;2022-11-04T11:07:07;8.70;;;5.18;;
41556;SDS011;27720;51.992;5.890;2022-11-04T11:09:35;10.85;;;6.53;;
41556;SDS011;27720;51.992;5.890;2022-11-04T11:12:05;15.07;;;6.68;;
41556;SDS011;27720;51.992;5.890;2022-11-04T11:14:44;10.00;;;6.18;;
41556;SDS011;27720;51.992;5.890;2022-11-04T11:22:33;12.05;;;8.13;;
41556;SDS011;27720;51.992;5.890;2022-11-04T11:25:16;14.63;;;7.40;;
41556;SDS011;27720;51.992;5.890;2022-11-04T11:27:51;11.82;;;7.13;;
41556;SDS011;27720;51.992;5.890;2022-11-04T11:30:34;10.80;;;6.35;;
41556;SDS011;27720;51.992;5.890;2022-11-04T11:33:27;15.68;;;7.70;;
41556;SDS011;27720;51.992;5.890;2022-11-04T11:36:17;10.02;;;6.35;;
41556;SDS011;27720;51.992;5.890;2022-11-04T11:38:53;11.82;;;6.97;;
41556;SDS011;27720;51.992;5.890;2022-11-04T11:41:31;10.57;;;6.68;;
41556;SDS011;27720;51.992;5.890;2022-11-04T11:45:00;11.93;;;6.07;;
41556;SDS011;27720;51.992;5.890;2022-11-04T11:55:48;9.20;;;5.63;;
41556;SDS011;27720;51.992;5.890;2022-11-04T12:01:13;11.30;;;6.90;;
41556;SDS011;27720;51.992;5.890;2022-11-04T12:03:49;12.73;;;6.22;;
41556;SDS011;27720;51.992;5.890;2022-11-04T12:25:59;15.13;;;7.80;;
41556;SDS011;27720;51.992;5.890;2022-11-04T12:28:57;11.18;;;6.85;;
41556;SDS011;27720;51.992;5.890;2022-11-04T12:31:49;10.48;;;6.75;;
41556;SDS011;27720;51.992;5.890;2022-11-04T12:37:30;12.65;;;6.72;;
41556;SDS011;27720;51.992;5.890;2022-11-04T12:42:50;14.10;;;6.82;;
41556;SDS011;27720;51.992;5.890;2022-11-04T12:48:09;9.98;;;5.88;;
41556;SDS011;27720;51.992;5.890;2022-11-04T12:56:35;12.07;;;7.05;;
41556;SDS011;27720;51.992;5.890;2022-11-04T13:02:01;12.43;;;7.25;;
41556;SDS011;27720;51.992;5.890;2022-11-04T13:04:39;9.63;;;6.22;;
41556;SDS011;27720;51.992;5.890;2022-11-04T13:07:27;11.45;;;7.13;;
41556;SDS011;27720;51.992;5.890;2022-11-04T13:09:58;14.38;;;6.95;;
41556;SDS011;27720;51.992;5.890;2022-11-04T13:12:41;15.32;;;7.35;;
41556;SDS011;27720;51.992;5.890;2022-11-04T13:15:17;11.13;;;6.80;;
41556;SDS011;27720;51.992;5.890;2022-11-04T13:17:43;11.18;;;6.78;;
41556;SDS011;27720;51.992;5.890;2022-11-04T13:22:41;12.30;;;7.15;;
41556;SDS011;27720;51.992;5.890;2022-11-04T13:25:27;13.88;;;6.75;;
41556;SDS011;27720;51.992;5.890;2022-11-04T13:28:17;12.95;;;6.25;;
41556;SDS011;27720;51.992;5.890;2022-11-04T13:33:34;17.65;;;7.32;;
41556;SDS011;27720;51.992;5.890;2022-11-04T13:36:38;12.55;;;6.57;;
41556;SDS011;27720;51.992;5.890;2022-11-04T13:39:40;10.15;;;6.68;;
41556;SDS011;27720;51.992;5.890;2022-11-04T13:44:52;11.20;;;6.40;;
41556;SDS011;27720;51.992;5.890;2022-11-04T13:49:59;9.93;;;5.88;;
41556;SDS011;27720;51.992;5.890;2022-11-04T13:52:30;10.70;;;5.82;;
41556;SDS011;27720;51.992;5.890;2022-11-04T13:54:58;9.65;;;5.45;;
41556;SDS011;27720;51.992;5.890;2022-11-04T13:57:47;12.07;;;5.50;;
41556;SDS011;27720;51.992;5.890;2022-11-04T14:00:23;10.05;;;5.68;;
41556;SDS011;27720;51.992;5.890;2022-11-04T14:02:55;11.95;;;6.10;;
41556;SDS011;27720;51.992;5.890;2022-11-04T14:18:48;10.55;;;5.30;;
41556;SDS011;27720;51.992;5.890;2022-11-04T14:21:19;9.35;;;5.43;;
41556;SDS011;27720;51.992;5.890;2022-11-04T14:23:51;10.43;;;5.18;;
41556;SDS011;27720;51.992;5.890;2022-11-04T14:26:24;9.18;;;5.05;;
41556;SDS011;27720;51.992;5.890;2022-11-04T14:31:51;9.27;;;6.28;;
41556;SDS011;27720;51.992;5.890;2022-11-04T14:34:32;11.65;;;5.50;;
41556;SDS011;27720;51.992;5.890;2022-11-04T14:37:16;12.18;;;5.80;;
41556;SDS011;27720;51.992;5.890;2022-11-04T14:39:56;8.90;;;4.90;;
41556;SDS011;27720;51.992;5.890;2022-11-04T14:45:15;11.30;;;4.55;;
41556;SDS011;27720;51.992;5.890;2022-11-04T14:47:49;7.78;;;4.32;;
41556;SDS011;27720;51.992;5.890;2022-11-04T14:50:24;12.15;;;6.90;;
41556;SDS011;27720;51.992;5.890;2022-11-04T14:52:56;8.77;;;5.40;;
41556;SDS011;27720;51.992;5.890;2022-11-04T14:57:53;5.07;;;2.22;;
41556;SDS011;27720;51.992;5.890;2022-11-04T15:03:15;3.88;;;1.13;;
41556;SDS011;27720;51.992;5.890;2022-11-04T15:08:30;1.17;;;0.60;;
41556;SDS011;27720;51.992;5.890;2022-11-04T15:10:57;1.23;;;0.65;;
41556;SDS011;27720;51.992;5.890;2022-11-04T15:13:42;1.15;;;0.47;;
41556;SDS011;27720;51.992;5.890;2022-11-04T15:16:14;1.30;;;0.80;;
41556;SDS011;27720;51.992;5.890;2022-11-04T15:18:44;0.90;;;0.55;;
41556;SDS011;27720;51.992;5.890;2022-11-04T15:21:10;1.65;;;0.50;;
41556;SDS011;27720;51.992;5.890;2022-11-04T15:24:37;0.70;;;0.50;;
41556;SDS011;27720;51.992;5.890;2022-11-04T15:26:40;0.73;;;0.30;;
41556;SDS011;27720;51.992;5.890;2022-11-04T15:29:09;0.50;;;0.50;;
41556;SDS011;27720;51.992;5.890;2022-11-04T15:31:38;1.63;;;0.50;;
41556;SDS011;27720;51.992;5.890;2022-11-04T15:34:16;1.63;;;0.60;;
41556;SDS011;27720;51.992;5.890;2022-11-04T15:36:46;2.45;;;0.57;;
41556;SDS011;27720;51.992;5.890;2022-11-04T15:41:41;2.30;;;0.40;;
41556;SDS011;27720;51.992;5.890;2022-11-04T15:44:28;1.95;;;0.50;;
41556;SDS011;27720;51.992;5.890;2022-11-04T15:47:00;2.80;;;0.68;;
41556;SDS011;27720;51.992;5.890;2022-11-04T15:49:29;1.05;;;0.60;;
41556;SDS011;27720;51.992;5.890;2022-11-04T15:52:00;2.17;;;0.95;;
41556;SDS011;27720;51.992;5.890;2022-11-04T15:54:32;3.28;;;0.85;;
41556;SDS011;27720;51.992;5.890;2022-11-04T15:57:15;3.00;;;1.20;;
41556;SDS011;27720;51.992;5.890;2022-11-04T16:00:01;3.42;;;1.17;;
41556;SDS011;27720;51.992;5.890;2022-11-04T16:02:38;4.18;;;1.52;;
41556;SDS011;27720;51.992;5.890;2022-11-04T16:07:41;3.92;;;1.50;;
41556;SDS011;27720;51.992;5.890;2022-11-04T16:13:39;3.65;;;1.60;;
41556;SDS011;27720;51.992;5.890;2022-11-04T16:18:20;2.47;;;1.23;;
41556;SDS011;27720;51.992;5.890;2022-11-04T16:20:48;2.95;;;1.20;;
41556;SDS011;27720;51.992;5.890;2022-11-04T16:23:18;3.50;;;1.33;;
41556;SDS011;27720;51.992;5.890;2022-11-04T16:25:57;2.78;;;1.13;;
41556;SDS011;27720;51.992;5.890;2022-11-04T16:28:32;5.10;;;1.08;;
41556;SDS011;27720;51.992;5.890;2022-11-04T16:31:01;2.28;;;0.93;;
41556;SDS011;27720;51.992;5.890;2022-11-04T16:33:30;1.13;;;0.80;;
41556;SDS011;27720;51.992;5.890;2022-11-04T16:35:56;2.17;;;0.93;;
41556;SDS011;27720;51.992;5.890;2022-11-04T16:38:22;3.00;;;1.05;;
41556;SDS011;27720;51.992;5.890;2022-11-04T16:40:48;1.55;;;0.80;;
41556;SDS011;27720;51.992;5.890;2022-11-04T16:43:16;1.35;;;1.00;;
41556;SDS011;27720;51.992;5.890;2022-11-04T16:45:47;1.65;;;1.10;;
41556;SDS011;27720;51.992;5.890;2022-11-04T16:48:18;2.53;;;1.17;;
41556;SDS011;27720;51.992;5.890;2022-11-04T16:50:44;4.80;;;1.60;;
41556;SDS011;27720;51.992;5.890;2022-11-04T16:53:11;2.75;;;1.60;;
41556;SDS011;27720;51.992;5.890;2022-11-04T16:55:41;3.10;;;1.90;;
41556;SDS011;27720;51.992;5.890;2022-11-04T16:58:09;4.32;;;1.70;;
41556;SDS011;27720;51.992;5.890;2022-11-04T17:00:43;3.95;;;1.98;;
41556;SDS011;27720;51.992;5.890;2022-11-04T17:03:18;6.30;;;1.92;;
41556;SDS011;27720;51.992;5.890;2022-11-04T17:05:51;3.70;;;1.83;;
41556;SDS011;27720;51.992;5.890;2022-11-04T17:08:21;3.70;;;2.20;;
41556;SDS011;27720;51.992;5.890;2022-11-04T17:10:47;4.35;;;2.30;;
41556;SDS011;27720;51.992;5.890;2022-11-04T17:13:13;4.70;;;2.50;;
41556;SDS011;27720;51.992;5.890;2022-11-04T17:15:39;3.83;;;2.00;;
41556;SDS011;27720;51.992;5.890;2022-11-04T17:18:05;1.92;;;1.60;;
41556;SDS011;27720;51.992;5.890;2022-11-04T17:20:31;3.45;;;1.75;;
41556;SDS011;27720;51.992;5.890;2022-11-04T17:22:58;4.97;;;1.98;;
41556;SDS011;27720;51.992;5.890;2022-11-04T17:25:27;4.82;;;2.30;;
41556;SDS011;27720;51.992;5.890;2022-11-04T17:27:53;4.38;;;2.10;;
41556;SDS011;27720;51.992;5.890;2022-11-04T17:30:20;5.53;;;2.30;;
41556;SDS011;27720;51.992;5.890;2022-11-04T17:32:47;4.88;;;2.13;;
41556;SDS011;27720;51.992;5.890;2022-11-04T17:35:13;4.57;;;2.50;;
41556;SDS011;27720;51.992;5.890;2022-11-04T17:37:40;5.20;;;2.78;;
41556;SDS011;27720;51.992;5.890;2022-11-04T17:40:07;3.72;;;2.20;;
41556;SDS011;27720;51.992;5.890;2022-11-04T17:42:38;3.78;;;2.65;;
41556;SDS011;27720;51.992;5.890;2022-11-04T17:45:22;5.72;;;3.22;;
41556;SDS011;27720;51.992;5.890;2022-11-04T17:47:47;3.90;;;2.30;;
41556;SDS011;27720;51.992;5.890;2022-11-04T17:50:13;4.35;;;2.33;;